Jim Hamilton L.B. Owens Airport
KCUB : now visible

Airfield :











YOU CAN JOIN US ON...

 
LOGIN :

Register | Disclaimer

   EN    FR    IT 

 









Legend :    VFR   Marginal VFR   IFR   Intensive IFR   Very Intensive IFR
Visi :
Ceiling :
>= 8 km
>= 3000ft
5 to 8 km
1000 to 3000 ft
1500m to 5 km
500 to 1000 ft
800 to 1500m
200 to 500 ft
< 800m
< 200 ft
Symbols :   Thunderstorms  Fog  Heavy snow  Heavy precipitations  Wind > 20 kt






- Airport Elevation : 193 ft


KCUB - Jim Hamilton L.B. Owens

CURRENT METAR :
  • 261726Z AUTO 22007KT 10SM SCT018 18/14 A2987 RMK AO2 T01780139

EXPIRED METARs :
  • 261653Z AUTO 19005KT 10SM BKN019 18/15 A2986 RMK AO2 SLP111 T01780150
  • 261634Z AUTO 18004KT 10SM FEW008 BKN019 17/15 A2987 RMK AO2 T01720150
  • 261625Z AUTO 20003KT 10SM FEW008 SCT017 17/15 A2987 RMK AO2 T01720150
  • 261606Z AUTO 16004KT 10SM SCT022 17/15 A2987 RMK AO2 T01670150
  • 261553Z AUTO 00000KT 8SM BKN022 17/15 A2988 RMK AO2 SLP115 T01670150
  • 261453Z AUTO 00000KT 5SM BR OVC016 16/14 A2988 RMK AO2 SLP118 T01560144 53003
  • 261420Z AUTO 00000KT 3SM BR SCT003 OVC017 16/15 A2988 RMK AO2 T01560150

TAF KCUB
Valid from the 26 at 15:00 until the 27 at 12:00 UTC


261500Z 2615/2712 23007KT P6SM SCT025 BKN080
TEMPO 2615/2617 5SM BR BKN025
FM262200 26012G20KT P6SM -SHRA OVC035
FM270200 26012G20KT P6SM SCT040 BKN250



MET'MAP, your aeronautical weather chart ! - Copyright ORBIFLY December 2007 - Disclaimer

ORBIFLY MET'MAP TEAM :

Programming & Development : Alexandra Zaïnal
Concept & original design : Baudouin d'Aumeries
Assistance for programming : Marc-Olivier Méhu
Technical & hardware support : Manuel Goepfert

Contact : metmap@orbifly.com




SOURCES & CREDITS :

   NOAA       Earth
Advisory